sensor_id;sensor_type;location;lat;lon;timestamp;P1;durP1;ratioP1;P2;durP2;ratioP2
83121;SDS011;73002;47.238;9.006;2023-11-21T03:57:02;2.47;;;0.90;;
83121;SDS011;73002;47.238;9.006;2023-11-21T03:59:28;2.13;;;0.75;;
83121;SDS011;73002;47.238;9.006;2023-11-21T04:01:56;2.85;;;0.93;;
83121;SDS011;73002;47.238;9.006;2023-11-21T04:04:22;2.03;;;0.80;;
83121;SDS011;73002;47.238;9.006;2023-11-21T04:06:48;2.45;;;0.88;;
83121;SDS011;73002;47.238;9.006;2023-11-21T04:14:23;3.13;;;0.60;;
83121;SDS011;73002;47.238;9.006;2023-11-21T04:16:52;1.77;;;0.70;;
83121;SDS011;73002;47.238;9.006;2023-11-21T04:19:17;2.47;;;0.73;;
83121;SDS011;73002;47.238;9.006;2023-11-21T04:21:43;3.70;;;0.60;;
83121;SDS011;73002;47.238;9.006;2023-11-21T04:24:08;2.70;;;0.80;;
83121;SDS011;73002;47.238;9.006;2023-11-21T04:26:34;1.55;;;0.60;;
83121;SDS011;73002;47.238;9.006;2023-11-21T04:29:03;5.82;;;0.60;;
83121;SDS011;73002;47.238;9.006;2023-11-21T04:36:43;1.20;;;0.50;;
83121;SDS011;73002;47.238;9.006;2023-11-21T04:39:11;1.13;;;0.60;;
83121;SDS011;73002;47.238;9.006;2023-11-21T04:41:39;1.25;;;0.60;;
83121;SDS011;73002;47.238;9.006;2023-11-21T04:44:07;2.13;;;0.60;;
83121;SDS011;73002;47.238;9.006;2023-11-21T04:46:33;1.60;;;0.77;;
83121;SDS011;73002;47.238;9.006;2023-11-21T04:48:59;2.20;;;0.60;;
83121;SDS011;73002;47.238;9.006;2023-11-21T04:51:24;1.67;;;0.63;;
83121;SDS011;73002;47.238;9.006;2023-11-21T04:53:50;3.45;;;0.70;;
83121;SDS011;73002;47.238;9.006;2023-11-21T04:56:15;3.22;;;0.80;;
83121;SDS011;73002;47.238;9.006;2023-11-21T04:58:42;2.17;;;0.60;;
83121;SDS011;73002;47.238;9.006;2023-11-21T05:01:08;2.75;;;0.70;;
83121;SDS011;73002;47.238;9.006;2023-11-21T05:03:33;2.78;;;0.85;;
83121;SDS011;73002;47.238;9.006;2023-11-21T05:06:00;2.75;;;1.00;;
83121;SDS011;73002;47.238;9.006;2023-11-21T05:13:35;3.20;;;1.00;;
83121;SDS011;73002;47.238;9.006;2023-11-21T05:16:01;2.67;;;1.00;;
83121;SDS011;73002;47.238;9.006;2023-11-21T05:18:30;4.10;;;1.40;;
83121;SDS011;73002;47.238;9.006;2023-11-21T05:20:56;5.55;;;1.23;;
83121;SDS011;73002;47.238;9.006;2023-11-21T05:23:24;3.03;;;1.00;;
83121;SDS011;73002;47.238;9.006;2023-11-21T05:25:49;3.30;;;1.15;;
83121;SDS011;73002;47.238;9.006;2023-11-21T05:28:18;2.70;;;1.00;;
83121;SDS011;73002;47.238;9.006;2023-11-21T05:30:43;4.20;;;1.30;;
83121;SDS011;73002;47.238;9.006;2023-11-21T05:33:09;3.95;;;1.13;;
83121;SDS011;73002;47.238;9.006;2023-11-21T05:35:34;3.90;;;1.50;;
83121;SDS011;73002;47.238;9.006;2023-11-21T05:38:00;2.70;;;1.75;;
83121;SDS011;73002;47.238;9.006;2023-11-21T05:40:26;3.83;;;1.60;;
83121;SDS011;73002;47.238;9.006;2023-11-21T05:42:54;6.07;;;1.60;;
83121;SDS011;73002;47.238;9.006;2023-11-21T05:45:24;4.18;;;1.30;;
83121;SDS011;73002;47.238;9.006;2023-11-21T05:47:49;2.92;;;1.00;;
83121;SDS011;73002;47.238;9.006;2023-11-21T05:50:16;4.28;;;1.23;;
83121;SDS011;73002;47.238;9.006;2023-11-21T05:55:16;3.20;;;1.15;;
83121;SDS011;73002;47.238;9.006;2023-11-21T05:57:43;3.55;;;1.10;;
83121;SDS011;73002;47.238;9.006;2023-11-21T06:00:13;3.17;;;1.10;;
83121;SDS011;73002;47.238;9.006;2023-11-21T06:02:47;4.63;;;1.10;;
83121;SDS011;73002;47.238;9.006;2023-11-21T06:05:15;3.90;;;1.27;;
83121;SDS011;73002;47.238;9.006;2023-11-21T06:07:42;1.83;;;1.00;;
83121;SDS011;73002;47.238;9.006;2023-11-21T06:10:10;2.15;;;0.95;;
83121;SDS011;73002;47.238;9.006;2023-11-21T06:12:36;4.43;;;0.82;;
83121;SDS011;73002;47.238;9.006;2023-11-21T06:15:03;3.22;;;0.80;;
83121;SDS011;73002;47.238;9.006;2023-11-21T06:17:49;2.72;;;1.20;;
83121;SDS011;73002;47.238;9.006;2023-11-21T06:20:17;3.88;;;0.95;;
83121;SDS011;73002;47.238;9.006;2023-11-21T06:22:44;1.80;;;1.00;;
83121;SDS011;73002;47.238;9.006;2023-11-21T06:25:15;2.83;;;0.90;;
83121;SDS011;73002;47.238;9.006;2023-11-21T06:27:44;1.02;;;0.70;;
83121;SDS011;73002;47.238;9.006;2023-11-21T06:30:12;1.42;;;0.70;;
83121;SDS011;73002;47.238;9.006;2023-11-21T06:35:15;2.45;;;0.70;;
83121;SDS011;73002;47.238;9.006;2023-11-21T06:37:42;1.63;;;0.70;;
83121;SDS011;73002;47.238;9.006;2023-11-21T06:40:13;2.25;;;0.80;;
83121;SDS011;73002;47.238;9.006;2023-11-21T06:42:43;6.70;;;1.27;;
83121;SDS011;73002;47.238;9.006;2023-11-21T06:45:09;57.80;;;4.65;;
83121;SDS011;73002;47.238;9.006;2023-11-21T06:47:36;3.58;;;1.10;;
83121;SDS011;73002;47.238;9.006;2023-11-21T06:50:03;2.45;;;0.75;;
83121;SDS011;73002;47.238;9.006;2023-11-21T06:52:29;2.50;;;0.90;;
83121;SDS011;73002;47.238;9.006;2023-11-21T06:54:56;3.17;;;0.82;;
83121;SDS011;73002;47.238;9.006;2023-11-21T06:57:25;4.07;;;0.93;;
83121;SDS011;73002;47.238;9.006;2023-11-21T06:59:50;2.22;;;1.00;;
83121;SDS011;73002;47.238;9.006;2023-11-21T07:02:16;1.80;;;0.75;;
83121;SDS011;73002;47.238;9.006;2023-11-21T07:04:46;2.47;;;0.80;;
83121;SDS011;73002;47.238;9.006;2023-11-21T07:07:11;3.22;;;0.93;;
83121;SDS011;73002;47.238;9.006;2023-11-21T07:09:37;1.02;;;0.80;;
83121;SDS011;73002;47.238;9.006;2023-11-21T07:12:03;2.55;;;0.90;;
83121;SDS011;73002;47.238;9.006;2023-11-21T07:14:31;1.63;;;0.70;;
83121;SDS011;73002;47.238;9.006;2023-11-21T07:16:57;1.73;;;0.60;;
83121;SDS011;73002;47.238;9.006;2023-11-21T07:19:22;1.35;;;0.93;;
83121;SDS011;73002;47.238;9.006;2023-11-21T07:21:51;1.48;;;0.80;;
83121;SDS011;73002;47.238;9.006;2023-11-21T07:24:17;6.32;;;2.22;;
83121;SDS011;73002;47.238;9.006;2023-11-21T07:26:43;3.22;;;2.10;;
83121;SDS011;73002;47.238;9.006;2023-11-21T07:29:08;2.58;;;0.98;;
83121;SDS011;73002;47.238;9.006;2023-11-21T07:31:34;1.52;;;0.60;;
83121;SDS011;73002;47.238;9.006;2023-11-21T07:34:00;3.20;;;0.70;;
83121;SDS011;73002;47.238;9.006;2023-11-21T07:36:26;2.40;;;0.70;;
83121;SDS011;73002;47.238;9.006;2023-11-21T07:38:51;2.45;;;0.60;;
83121;SDS011;73002;47.238;9.006;2023-11-21T07:41:17;1.85;;;0.73;;
83121;SDS011;73002;47.238;9.006;2023-11-21T07:43:44;1.40;;;0.70;;
83121;SDS011;73002;47.238;9.006;2023-11-21T07:46:10;1.88;;;1.00;;
83121;SDS011;73002;47.238;9.006;2023-11-21T07:48:37;0.55;;;0.50;;
83121;SDS011;73002;47.238;9.006;2023-11-21T07:51:03;0.77;;;0.70;;
83121;SDS011;73002;47.238;9.006;2023-11-21T07:56:06;1.40;;;0.30;;
83121;SDS011;73002;47.238;9.006;2023-11-21T07:58:34;1.98;;;0.57;;
83121;SDS011;73002;47.238;9.006;2023-11-21T08:01:02;0.95;;;0.40;;
83121;SDS011;73002;47.238;9.006;2023-11-21T08:03:28;0.40;;;0.22;;
83121;SDS011;73002;47.238;9.006;2023-11-21T08:05:59;1.20;;;0.43;;
83121;SDS011;73002;47.238;9.006;2023-11-21T08:08:25;1.00;;;0.47;;
83121;SDS011;73002;47.238;9.006;2023-11-21T08:10:52;0.45;;;0.30;;
83121;SDS011;73002;47.238;9.006;2023-11-21T08:13:23;0.65;;;0.40;;
83121;SDS011;73002;47.238;9.006;2023-11-21T08:15:50;0.77;;;0.30;;
83121;SDS011;73002;47.238;9.006;2023-11-21T08:18:15;3.63;;;1.45;;
83121;SDS011;73002;47.238;9.006;2023-11-21T08:20:44;2.35;;;1.50;;
83121;SDS011;73002;47.238;9.006;2023-11-21T08:23:13;1.38;;;0.70;;
83121;SDS011;73002;47.238;9.006;2023-11-21T08:25:45;1.30;;;0.50;;
83121;SDS011;73002;47.238;9.006;2023-11-21T08:28:10;1.27;;;0.40;;
83121;SDS011;73002;47.238;9.006;2023-11-21T08:30:37;1.65;;;0.47;;
83121;SDS011;73002;47.238;9.006;2023-11-21T08:33:02;0.75;;;0.40;;
83121;SDS011;73002;47.238;9.006;2023-11-21T08:35:29;0.90;;;0.50;;
83121;SDS011;73002;47.238;9.006;2023-11-21T08:37:54;21.25;;;12.70;;
83121;SDS011;73002;47.238;9.006;2023-11-21T08:40:20;2.72;;;1.60;;
83121;SDS011;73002;47.238;9.006;2023-11-21T08:42:47;5.22;;;1.17;;
83121;SDS011;73002;47.238;9.006;2023-11-21T08:45:16;1.42;;;0.60;;
83121;SDS011;73002;47.238;9.006;2023-11-21T08:47:42;0.68;;;0.30;;
83121;SDS011;73002;47.238;9.006;2023-11-21T08:50:09;2.72;;;0.30;;
83121;SDS011;73002;47.238;9.006;2023-11-21T08:52:37;20.50;;;2.00;;
83121;SDS011;73002;47.238;9.006;2023-11-21T08:55:03;1.95;;;0.57;;
83121;SDS011;73002;47.238;9.006;2023-11-21T08:57:28;0.40;;;0.40;;
83121;SDS011;73002;47.238;9.006;2023-11-21T08:59:54;2.28;;;0.50;;
83121;SDS011;73002;47.238;9.006;2023-11-21T09:02:22;1.45;;;0.40;;
83121;SDS011;73002;47.238;9.006;2023-11-21T09:04:50;1.67;;;0.30;;
83121;SDS011;73002;47.238;9.006;2023-11-21T09:07:17;0.88;;;0.20;;
83121;SDS011;73002;47.238;9.006;2023-11-21T09:09:48;0.95;;;0.30;;
83121;SDS011;73002;47.238;9.006;2023-11-21T09:12:14;0.68;;;0.20;;
83121;SDS011;73002;47.238;9.006;2023-11-21T09:14:40;1.52;;;0.30;;
83121;SDS011;73002;47.238;9.006;2023-11-21T09:17:07;0.30;;;0.30;;
83121;SDS011;73002;47.238;9.006;2023-11-21T09:19:39;1.58;;;0.20;;
83121;SDS011;73002;47.238;9.006;2023-11-21T09:22:05;1.17;;;0.30;;
83121;SDS011;73002;47.238;9.006;2023-11-21T09:24:31;0.73;;;0.38;;
83121;SDS011;73002;47.238;9.006;2023-11-21T09:26:57;0.32;;;0.30;;
83121;SDS011;73002;47.238;9.006;2023-11-21T09:29:23;0.32;;;0.22;;
83121;SDS011;73002;47.238;9.006;2023-11-21T09:31:48;0.65;;;0.30;;
83121;SDS011;73002;47.238;9.006;2023-11-21T09:34:14;1.60;;;0.37;;
83121;SDS011;73002;47.238;9.006;2023-11-21T09:36:39;0.70;;;0.30;;
83121;SDS011;73002;47.238;9.006;2023-11-21T09:39:06;0.95;;;0.35;;
83121;SDS011;73002;47.238;9.006;2023-11-21T09:41:37;0.80;;;0.30;;
83121;SDS011;73002;47.238;9.006;2023-11-21T09:44:09;1.67;;;0.73;;
83121;SDS011;73002;47.238;9.006;2023-11-21T09:46:42;2.63;;;0.90;;
83121;SDS011;73002;47.238;9.006;2023-11-21T09:49:11;2.53;;;0.98;;
83121;SDS011;73002;47.238;9.006;2023-11-21T09:51:44;2.80;;;1.10;;
83121;SDS011;73002;47.238;9.006;2023-11-21T09:54:12;38.63;;;4.00;;
83121;SDS011;73002;47.238;9.006;2023-11-21T09:56:41;6.22;;;1.08;;
83121;SDS011;73002;47.238;9.006;2023-11-21T09:59:07;11.65;;;7.25;;
83121;SDS011;73002;47.238;9.006;2023-11-21T10:04:04;6.45;;;4.05;;
83121;SDS011;73002;47.238;9.006;2023-11-21T10:06:36;1.50;;;0.95;;
83121;SDS011;73002;47.238;9.006;2023-11-21T10:09:04;0.40;;;0.30;;
83121;SDS011;73002;47.238;9.006;2023-11-21T10:11:36;0.95;;;0.30;;
83121;SDS011;73002;47.238;9.006;2023-11-21T10:14:06;1.00;;;0.40;;
83121;SDS011;73002;47.238;9.006;2023-11-21T10:16:36;1.58;;;0.80;;
83121;SDS011;73002;47.238;9.006;2023-11-21T10:19:04;2.55;;;1.85;;
83121;SDS011;73002;47.238;9.006;2023-11-21T10:21:33;1.13;;;0.50;;
83121;SDS011;73002;47.238;9.006;2023-11-21T10:23:59;0.50;;;0.30;;
83121;SDS011;73002;47.238;9.006;2023-11-21T10:26:25;1.67;;;0.40;;
83121;SDS011;73002;47.238;9.006;2023-11-21T10:28:59;4.80;;;3.97;;
83121;SDS011;73002;47.238;9.006;2023-11-21T10:31:26;3.20;;;0.50;;
83121;SDS011;73002;47.238;9.006;2023-11-21T10:36:38;0.82;;;0.40;;
83121;SDS011;73002;47.238;9.006;2023-11-21T10:39:03;0.93;;;0.40;;
83121;SDS011;73002;47.238;9.006;2023-11-21T10:41:29;0.93;;;0.45;;
83121;SDS011;73002;47.238;9.006;2023-11-21T10:43:57;3.03;;;0.70;;
83121;SDS011;73002;47.238;9.006;2023-11-21T10:46:23;2.97;;;0.40;;
83121;SDS011;73002;47.238;9.006;2023-11-21T10:48:52;11.10;;;7.18;;
83121;SDS011;73002;47.238;9.006;2023-11-21T10:51:18;1.33;;;1.08;;
83121;SDS011;73002;47.238;9.006;2023-11-21T10:53:47;1.25;;;0.70;;
83121;SDS011;73002;47.238;9.006;2023-11-21T10:56:15;1.08;;;0.70;;
83121;SDS011;73002;47.238;9.006;2023-11-21T10:58:46;0.98;;;0.50;;
83121;SDS011;73002;47.238;9.006;2023-11-21T11:15:41;1.20;;;0.60;;
83121;SDS011;73002;47.238;9.006;2023-11-21T11:18:10;1.30;;;0.50;;
83121;SDS011;73002;47.238;9.006;2023-11-21T11:20:37;2.47;;;0.63;;
83121;SDS011;73002;47.238;9.006;2023-11-21T11:28:27;0.32;;;0.30;;
83121;SDS011;73002;47.238;9.006;2023-11-21T11:38:54;0.47;;;0.40;;
83121;SDS011;73002;47.238;9.006;2023-11-21T11:41:27;1.02;;;0.50;;
83121;SDS011;73002;47.238;9.006;2023-11-21T11:44:00;1.33;;;0.60;;
83121;SDS011;73002;47.238;9.006;2023-11-21T11:46:42;2.65;;;0.55;;
83121;SDS011;73002;47.238;9.006;2023-11-21T11:49:23;0.60;;;0.50;;
83121;SDS011;73002;47.238;9.006;2023-11-21T11:55:18;0.90;;;0.60;;
83121;SDS011;73002;47.238;9.006;2023-11-21T11:57:47;0.80;;;0.52;;
83121;SDS011;73002;47.238;9.006;2023-11-21T12:00:19;0.80;;;0.50;;
83121;SDS011;73002;47.238;9.006;2023-11-21T12:02:51;1.02;;;0.60;;
83121;SDS011;73002;47.238;9.006;2023-11-21T12:10:38;0.75;;;0.75;;
83121;SDS011;73002;47.238;9.006;2023-11-21T12:13:08;1.20;;;0.90;;
83121;SDS011;73002;47.238;9.006;2023-11-21T12:15:34;1.10;;;0.80;;
83121;SDS011;73002;47.238;9.006;2023-11-21T12:18:00;1.40;;;0.88;;
83121;SDS011;73002;47.238;9.006;2023-11-21T12:20:27;2.05;;;0.90;;
83121;SDS011;73002;47.238;9.006;2023-11-21T12:22:56;2.80;;;1.10;;
83121;SDS011;73002;47.238;9.006;2023-11-21T12:25:29;2.25;;;1.05;;
83121;SDS011;73002;47.238;9.006;2023-11-21T12:27:57;4.63;;;1.00;;
83121;SDS011;73002;47.238;9.006;2023-11-21T12:30:23;2.97;;;1.10;;
83121;SDS011;73002;47.238;9.006;2023-11-21T12:32:53;8.65;;;1.50;;
83121;SDS011;73002;47.238;9.006;2023-11-21T12:35:22;3.35;;;1.00;;
83121;SDS011;73002;47.238;9.006;2023-11-21T12:37:50;2.55;;;1.13;;
83121;SDS011;73002;47.238;9.006;2023-11-21T12:42:52;1.13;;;0.82;;
83121;SDS011;73002;47.238;9.006;2023-11-21T12:50:35;0.93;;;0.50;;
83121;SDS011;73002;47.238;9.006;2023-11-21T12:53:05;0.68;;;0.40;;
83121;SDS011;73002;47.238;9.006;2023-11-21T12:55:37;0.47;;;0.35;;
83121;SDS011;73002;47.238;9.006;2023-11-21T12:58:04;0.90;;;0.50;;
83121;SDS011;73002;47.238;9.006;2023-11-21T13:00:35;1.02;;;0.50;;
83121;SDS011;73002;47.238;9.006;2023-11-21T13:03:02;0.77;;;0.57;;
83121;SDS011;73002;47.238;9.006;2023-11-21T13:05:36;2.38;;;0.90;;
83121;SDS011;73002;47.238;9.006;2023-11-21T13:08:08;0.80;;;0.63;;
83121;SDS011;73002;47.238;9.006;2023-11-21T13:10:37;1.73;;;0.80;;
83121;SDS011;73002;47.238;9.006;2023-11-21T13:20:49;1.40;;;0.70;;
83121;SDS011;73002;47.238;9.006;2023-11-21T13:23:15;1.52;;;1.00;;
83121;SDS011;73002;47.238;9.006;2023-11-21T13:25:43;1.08;;;0.90;;
83121;SDS011;73002;47.238;9.006;2023-11-21T13:28:12;3.58;;;1.00;;
83121;SDS011;73002;47.238;9.006;2023-11-21T13:30:40;1.85;;;0.80;;
83121;SDS011;73002;47.238;9.006;2023-11-21T13:33:06;2.03;;;1.00;;
83121;SDS011;73002;47.238;9.006;2023-11-21T13:43:09;2.00;;;0.88;;
83121;SDS011;73002;47.238;9.006;2023-11-21T13:45:35;1.88;;;0.95;;
83121;SDS011;73002;47.238;9.006;2023-11-21T13:48:05;2.83;;;1.43;;
83121;SDS011;73002;47.238;9.006;2023-11-21T13:50:41;3.38;;;1.20;;
83121;SDS011;73002;47.238;9.006;2023-11-21T13:53:23;6.20;;;1.58;;
83121;SDS011;73002;47.238;9.006;2023-11-21T13:55:53;2.10;;;1.30;;
83121;SDS011;73002;47.238;9.006;2023-11-21T13:58:22;3.35;;;1.10;;
83121;SDS011;73002;47.238;9.006;2023-11-21T14:01:15;2.10;;;1.40;;
83121;SDS011;73002;47.238;9.006;2023-11-21T14:04:04;2.67;;;1.10;;
83121;SDS011;73002;47.238;9.006;2023-11-21T14:06:48;1.55;;;1.10;;
83121;SDS011;73002;47.238;9.006;2023-11-21T14:09:23;3.10;;;1.30;;
83121;SDS011;73002;47.238;9.006;2023-11-21T14:11:57;3.55;;;1.80;;
83121;SDS011;73002;47.238;9.006;2023-11-21T14:14:24;2.55;;;1.80;;
83121;SDS011;73002;47.238;9.006;2023-11-21T14:25:17;3.67;;;2.83;;
83121;SDS011;73002;47.238;9.006;2023-11-21T14:30:18;2.50;;;1.65;;
83121;SDS011;73002;47.238;9.006;2023-11-21T14:40:28;2.63;;;2.22;;
83121;SDS011;73002;47.238;9.006;2023-11-21T15:27:02;3.55;;;2.95;;
83121;SDS011;73002;47.238;9.006;2023-11-21T15:29:32;2.00;;;1.80;;
83121;SDS011;73002;47.238;9.006;2023-11-21T15:31:59;3.28;;;2.20;;
83121;SDS011;73002;47.238;9.006;2023-11-21T15:34:28;2.95;;;2.08;;
83121;SDS011;73002;47.238;9.006;2023-11-21T16:00:13;3.13;;;1.65;;
83121;SDS011;73002;47.238;9.006;2023-11-21T16:02:44;1.98;;;1.40;;
83121;SDS011;73002;47.238;9.006;2023-11-21T16:05:10;2.85;;;1.80;;
83121;SDS011;73002;47.238;9.006;2023-11-21T16:10:11;2.53;;;1.52;;
83121;SDS011;73002;47.238;9.006;2023-11-21T16:33:22;2.55;;;1.27;;
83121;SDS011;73002;47.238;9.006;2023-11-21T16:35:47;1.70;;;1.10;;
83121;SDS011;73002;47.238;9.006;2023-11-21T17:06:40;10.02;;;5.88;;
83121;SDS011;73002;47.238;9.006;2023-11-21T17:16:52;2.55;;;2.35;;
83121;SDS011;73002;47.238;9.006;2023-11-21T17:44:51;5.60;;;4.65;;
83121;SDS011;73002;47.238;9.006;2023-11-21T17:47:19;2.88;;;2.58;;
83121;SDS011;73002;47.238;9.006;2023-11-21T17:49:50;4.07;;;2.80;;
83121;SDS011;73002;47.238;9.006;2023-11-21T17:52:15;2.92;;;2.40;;
83121;SDS011;73002;47.238;9.006;2023-11-21T17:54:43;2.97;;;2.67;;
83121;SDS011;73002;47.238;9.006;2023-11-21T17:57:09;3.22;;;2.75;;
83121;SDS011;73002;47.238;9.006;2023-11-21T18:28:15;2.30;;;2.10;;
83121;SDS011;73002;47.238;9.006;2023-11-21T18:42:28;6.72;;;5.00;;
83121;SDS011;73002;47.238;9.006;2023-11-21T18:44:54;7.70;;;5.38;;
83121;SDS011;73002;47.238;9.006;2023-11-21T18:47:23;7.40;;;5.73;;
83121;SDS011;73002;47.238;9.006;2023-11-21T18:54:59;3.33;;;2.40;;
83121;SDS011;73002;47.238;9.006;2023-11-21T18:57:26;2.88;;;2.50;;
83121;SDS011;73002;47.238;9.006;2023-11-21T18:59:52;5.13;;;3.78;;
83121;SDS011;73002;47.238;9.006;2023-11-21T19:02:18;4.18;;;2.65;;
83121;SDS011;73002;47.238;9.006;2023-11-21T19:04:43;2.45;;;2.13;;
83121;SDS011;73002;47.238;9.006;2023-11-21T19:27:51;1.30;;;1.20;;
83121;SDS011;73002;47.238;9.006;2023-11-21T19:30:17;1.63;;;1.52;;
83121;SDS011;73002;47.238;9.006;2023-11-21T19:32:42;1.70;;;1.30;;
83121;SDS011;73002;47.238;9.006;2023-11-21T20:00:16;11.88;;;7.07;;
83121;SDS011;73002;47.238;9.006;2023-11-21T20:02:42;12.02;;;7.57;;
83121;SDS011;73002;47.238;9.006;2023-11-21T20:05:10;12.45;;;9.02;;
83121;SDS011;73002;47.238;9.006;2023-11-21T20:07:40;14.20;;;9.77;;
83121;SDS011;73002;47.238;9.006;2023-11-21T20:10:07;15.68;;;8.80;;
83121;SDS011;73002;47.238;9.006;2023-11-21T20:46:22;2.15;;;1.80;;
83121;SDS011;73002;47.238;9.006;2023-11-21T20:53:58;3.78;;;2.33;;
83121;SDS011;73002;47.238;9.006;2023-11-21T21:32:26;12.15;;;6.40;;
83121;SDS011;73002;47.238;9.006;2023-11-21T21:42:36;1.13;;;0.60;;
83121;SDS011;73002;47.238;9.006;2023-11-21T21:45:03;13.88;;;4.70;;
83121;SDS011;73002;47.238;9.006;2023-11-21T21:47:29;20.77;;;7.93;;
83121;SDS011;73002;47.238;9.006;2023-11-21T21:49:54;55.13;;;21.00;;
83121;SDS011;73002;47.238;9.006;2023-11-21T21:52:35;55.10;;;19.80;;
83121;SDS011;73002;47.238;9.006;2023-11-21T22:00:11;27.00;;;10.65;;
83121;SDS011;73002;47.238;9.006;2023-11-21T22:02:40;13.00;;;5.55;;
83121;SDS011;73002;47.238;9.006;2023-11-21T22:05:08;10.52;;;5.72;;
83121;SDS011;73002;47.238;9.006;2023-11-21T22:07:36;14.38;;;8.52;;
83121;SDS011;73002;47.238;9.006;2023-11-21T22:10:01;22.60;;;12.90;;
83121;SDS011;73002;47.238;9.006;2023-11-21T22:12:28;13.95;;;7.82;;
83121;SDS011;73002;47.238;9.006;2023-11-21T22:14:54;10.57;;;6.50;;
83121;SDS011;73002;47.238;9.006;2023-11-21T22:19:54;1.60;;;1.10;;
83121;SDS011;73002;47.238;9.006;2023-11-21T22:22:23;1.48;;;0.95;;
83121;SDS011;73002;47.238;9.006;2023-11-21T22:24:49;4.60;;;1.70;;
83121;SDS011;73002;47.238;9.006;2023-11-21T22:27:15;20.85;;;10.52;;
